createdAt,value
2022-12-31T00:02:16.195Z,80.13
2022-12-31T00:04:42.528Z,80.98
2022-12-31T00:07:08.843Z,81.19
2022-12-31T00:09:35.158Z,81.68
2022-12-31T00:12:01.458Z,81.13
2022-12-31T00:14:27.774Z,81.60
2022-12-31T00:16:54.090Z,82.46
2022-12-31T00:19:20.413Z,81.55
2022-12-31T00:21:46.731Z,81.38
2022-12-31T00:24:13.054Z,81.38
2022-12-31T00:26:39.366Z,80.89
2022-12-31T00:29:05.696Z,79.74
2022-12-31T00:31:32.014Z,79.33
2022-12-31T00:33:58.322Z,79.44
2022-12-31T00:36:24.650Z,78.75
2022-12-31T00:38:50.947Z,78.19
2022-12-31T00:41:17.248Z,77.61
2022-12-31T00:43:43.616Z,79.49
2022-12-31T00:46:09.965Z,80.38
2022-12-31T00:48:36.298Z,79.09
2022-12-31T00:51:02.619Z,80.20
2022-12-31T00:53:28.931Z,80.23
2022-12-31T00:55:55.239Z,80.45
2022-12-31T00:58:21.559Z,80.65
2022-12-31T01:00:47.870Z,78.99
2022-12-31T01:03:14.228Z,77.74
2022-12-31T01:05:40.592Z,78.27
2022-12-31T01:08:06.914Z,78.65
2022-12-31T01:10:33.219Z,78.64
2022-12-31T01:12:59.533Z,78.44
2022-12-31T01:15:25.920Z,78.49
2022-12-31T01:17:52.239Z,78.29
2022-12-31T01:20:18.556Z,77.82
2022-12-31T01:22:44.864Z,79.11
2022-12-31T01:25:11.170Z,78.62
2022-12-31T01:27:37.483Z,78.04
2022-12-31T01:30:03.783Z,78.44
2022-12-31T01:32:30.099Z,77.60
2022-12-31T01:34:56.516Z,77.90
2022-12-31T01:37:22.815Z,77.86
2022-12-31T01:39:49.108Z,76.56
2022-12-31T01:42:15.423Z,76.87
2022-12-31T01:44:41.724Z,76.82
2022-12-31T01:47:08.027Z,77.01
2022-12-31T01:49:34.388Z,76.18
2022-12-31T01:52:00.698Z,76.29
2022-12-31T01:54:27.001Z,75.61
2022-12-31T01:56:53.345Z,75.96
2022-12-31T01:59:19.631Z,76.13
2022-12-31T02:01:45.984Z,76.12
2022-12-31T02:04:12.333Z,76.75
2022-12-31T02:06:38.639Z,76.50
2022-12-31T02:09:04.936Z,77.52
2022-12-31T02:11:31.270Z,78.69
2022-12-31T02:13:58.800Z,77.89
2022-12-31T02:16:25.268Z,78.65
2022-12-31T02:18:51.793Z,78.02
2022-12-31T02:21:18.091Z,78.17
2022-12-31T02:23:44.401Z,79.21
2022-12-31T02:26:10.738Z,78.94
2022-12-31T02:28:37.080Z,77.70
2022-12-31T02:31:03.424Z,77.15
2022-12-31T02:33:29.807Z,77.17
2022-12-31T02:35:56.111Z,77.70
2022-12-31T02:38:22.432Z,76.61
2022-12-31T02:40:48.770Z,76.43
2022-12-31T02:43:15.075Z,76.46
2022-12-31T02:45:41.374Z,77.54
2022-12-31T02:48:07.708Z,77.30
2022-12-31T02:50:34.002Z,77.94
2022-12-31T02:53:00.312Z,78.83
2022-12-31T02:55:26.673Z,78.26
2022-12-31T02:57:52.966Z,77.99
2022-12-31T03:00:19.267Z,78.30
2022-12-31T03:02:45.600Z,77.52
2022-12-31T03:05:11.920Z,78.31
2022-12-31T03:07:38.225Z,77.71
2022-12-31T03:10:04.562Z,77.54
2022-12-31T03:12:30.948Z,77.62
2022-12-31T03:14:57.255Z,78.41
2022-12-31T03:17:23.566Z,78.23
2022-12-31T03:19:49.873Z,78.35
2022-12-31T03:22:16.164Z,78.82
2022-12-31T03:24:42.545Z,78.73
2022-12-31T03:27:08.887Z,78.47
2022-12-31T03:29:35.184Z,76.86
2022-12-31T03:32:01.559Z,75.56
2022-12-31T03:34:27.867Z,74.31
2022-12-31T03:36:54.164Z,74.84
2022-12-31T03:39:20.481Z,75.14
2022-12-31T03:41:46.780Z,74.14
2022-12-31T03:44:13.089Z,74.08
2022-12-31T03:46:39.414Z,74.08
2022-12-31T03:49:05.716Z,73.56
2022-12-31T03:51:32.029Z,73.41
2022-12-31T03:53:58.343Z,74.65
2022-12-31T03:56:24.705Z,74.11
2022-12-31T03:58:51.001Z,75.14
2022-12-31T04:01:17.415Z,75.66
2022-12-31T04:03:43.801Z,76.10
2022-12-31T04:06:10.100Z,76.07
2022-12-31T04:08:39.236Z,75.65
2022-12-31T04:11:05.542Z,75.76
2022-12-31T04:13:31.844Z,76.37
2022-12-31T04:15:58.197Z,75.53
2022-12-31T04:18:24.503Z,75.73
2022-12-31T04:20:50.801Z,76.15
2022-12-31T04:23:17.146Z,75.56
2022-12-31T04:25:43.438Z,76.89
2022-12-31T04:28:09.741Z,76.31
2022-12-31T04:30:36.072Z,75.54
2022-12-31T04:33:02.377Z,74.76
2022-12-31T04:35:28.676Z,75.01
2022-12-31T04:37:55.018Z,75.63
2022-12-31T04:40:21.341Z,73.34
2022-12-31T04:42:47.648Z,74.13
2022-12-31T04:45:13.966Z,73.25
2022-12-31T04:47:40.282Z,73.44
2022-12-31T04:50:06.596Z,73.55
2022-12-31T04:52:38.601Z,72.80
2022-12-31T04:55:08.563Z,72.59
2022-12-31T04:57:34.904Z,72.63
2022-12-31T05:00:01.210Z,72.75
2022-12-31T05:02:27.620Z,72.12
2022-12-31T05:04:54.024Z,71.99
2022-12-31T05:07:20.333Z,72.13
2022-12-31T05:09:46.637Z,73.41
2022-12-31T05:12:12.953Z,72.70
2022-12-31T05:14:39.245Z,71.73
2022-12-31T05:17:05.549Z,72.32
2022-12-31T05:19:31.894Z,74.05
2022-12-31T05:21:58.192Z,73.60
2022-12-31T05:24:24.486Z,73.43
2022-12-31T05:26:50.814Z,73.95
2022-12-31T05:29:17.111Z,74.15
2022-12-31T05:31:43.432Z,72.73
2022-12-31T05:34:09.779Z,73.28
2022-12-31T05:36:36.106Z,73.01
2022-12-31T05:39:02.406Z,71.73
2022-12-31T05:41:28.723Z,73.42
2022-12-31T05:43:55.017Z,73.60
2022-12-31T05:46:21.376Z,72.69
2022-12-31T05:48:47.720Z,73.16
2022-12-31T05:51:14.015Z,73.30
2022-12-31T05:53:40.333Z,72.05
2022-12-31T05:56:06.684Z,72.65
2022-12-31T05:58:33.044Z,73.59
2022-12-31T06:00:59.438Z,72.84
2022-12-31T06:03:25.866Z,72.24
2022-12-31T06:05:52.212Z,73.66
2022-12-31T06:08:18.539Z,73.88
2022-12-31T06:10:44.932Z,73.65
2022-12-31T06:13:11.292Z,73.68
2022-12-31T06:15:37.653Z,73.91
2022-12-31T06:18:04.012Z,75.06
2022-12-31T06:20:30.367Z,74.61
2022-12-31T06:22:56.753Z,73.92
2022-12-31T06:25:24.252Z,74.07
2022-12-31T06:27:50.619Z,74.89
2022-12-31T06:30:16.952Z,74.33
2022-12-31T06:32:43.313Z,75.09
2022-12-31T06:35:09.672Z,74.98
2022-12-31T06:37:36.073Z,74.10
2022-12-31T06:40:02.509Z,75.15
2022-12-31T06:42:29.110Z,73.86
2022-12-31T06:44:55.461Z,73.73
2022-12-31T06:47:21.874Z,74.63
2022-12-31T06:49:48.229Z,73.90
2022-12-31T06:52:14.897Z,74.04
2022-12-31T06:54:41.287Z,74.56
2022-12-31T06:57:07.637Z,73.77
2022-12-31T06:59:33.959Z,74.13
2022-12-31T07:02:00.460Z,75.62
2022-12-31T07:04:26.905Z,75.43
2022-12-31T07:06:53.399Z,75.89
2022-12-31T07:09:19.826Z,76.11
2022-12-31T07:11:49.403Z,76.09
2022-12-31T07:14:15.774Z,75.73
2022-12-31T07:16:42.178Z,75.52
2022-12-31T07:19:08.539Z,75.61
2022-12-31T07:21:36.609Z,75.74
2022-12-31T07:24:03.036Z,76.28
2022-12-31T07:26:29.387Z,76.25
2022-12-31T07:28:56.983Z,77.16
2022-12-31T07:31:23.368Z,76.15
2022-12-31T07:33:49.743Z,75.85
2022-12-31T07:36:16.079Z,75.59
2022-12-31T07:38:42.433Z,74.70
2022-12-31T07:41:10.068Z,74.74
2022-12-31T07:43:36.685Z,74.81
2022-12-31T07:46:03.077Z,75.74
2022-12-31T07:48:29.430Z,74.86
2022-12-31T07:50:55.782Z,74.78
2022-12-31T07:53:22.168Z,74.66
2022-12-31T07:55:48.549Z,75.71
2022-12-31T07:58:14.928Z,74.69
2022-12-31T08:00:41.354Z,73.72
2022-12-31T08:03:07.723Z,72.98
2022-12-31T08:05:34.127Z,72.14
2022-12-31T08:08:02.276Z,71.93
2022-12-31T08:10:28.777Z,73.28
2022-12-31T08:12:55.135Z,73.08
2022-12-31T08:15:30.935Z,73.00
2022-12-31T08:17:57.326Z,72.98
2022-12-31T08:20:23.769Z,72.67
2022-12-31T08:22:50.120Z,71.48
2022-12-31T08:25:16.485Z,72.16
2022-12-31T08:27:42.871Z,71.46
2022-12-31T08:30:09.204Z,71.16
2022-12-31T08:32:35.565Z,70.94
2022-12-31T08:35:02.029Z,70.98
2022-12-31T08:37:28.388Z,70.67
2022-12-31T08:39:54.780Z,70.63
2022-12-31T08:42:22.582Z,70.29
2022-12-31T08:44:51.941Z,69.56
2022-12-31T08:47:23.781Z,70.33
2022-12-31T08:49:50.178Z,70.68
2022-12-31T08:52:16.583Z,70.27
2022-12-31T08:54:42.925Z,71.04
2022-12-31T08:57:18.434Z,69.96
2022-12-31T08:59:46.946Z,70.58
2022-12-31T09:02:13.480Z,69.97
2022-12-31T09:05:02.826Z,69.67
2022-12-31T09:07:31.431Z,70.81
2022-12-31T09:10:00.832Z,70.42
2022-12-31T09:12:33.971Z,70.19
2022-12-31T09:15:07.103Z,69.86
2022-12-31T09:17:33.715Z,69.68
2022-12-31T09:20:22.610Z,68.85
2022-12-31T09:23:01.573Z,69.00
2022-12-31T09:25:29.132Z,68.02
2022-12-31T09:28:02.714Z,68.87
